createdAt,value
2022-08-09T00:00:50.056Z,20.20
2022-08-09T00:04:00.205Z,20.20
2022-08-09T00:06:19.875Z,20.20
2022-08-09T00:08:51.824Z,20.10
2022-08-09T00:11:24.816Z,20.10
2022-08-09T00:13:53.818Z,20.10
2022-08-09T00:16:26.156Z,20.10
2022-08-09T00:19:09.489Z,20.10
2022-08-09T00:21:55.619Z,20.10
2022-08-09T00:24:27.529Z,20.10
2022-08-09T00:26:57.649Z,20.00
2022-08-09T00:30:10.220Z,20.00
2022-08-09T00:32:27.228Z,20.00
2022-08-09T00:34:56.433Z,20.00
2022-08-09T00:37:25.596Z,20.00
2022-08-09T00:40:13.899Z,19.90
2022-08-09T00:44:16.132Z,19.90
2022-08-09T00:45:35.706Z,19.90
2022-08-09T00:48:05.778Z,19.80
2022-08-09T00:50:37.667Z,19.80
2022-08-09T00:53:10.371Z,19.80
2022-08-09T00:56:03.969Z,19.70
2022-08-09T00:58:34.562Z,19.70
2022-08-09T01:01:08.328Z,19.70
2022-08-09T01:03:51.533Z,19.70
2022-08-09T01:06:53.407Z,19.70
2022-08-09T01:09:26.381Z,19.60
2022-08-09T01:12:14.159Z,19.60
2022-08-09T01:14:52.631Z,19.60
2022-08-09T01:17:26.368Z,19.60
2022-08-09T01:20:03.449Z,19.70
2022-08-09T01:23:01.338Z,19.60
2022-08-09T01:25:48.861Z,19.60
2022-08-09T01:28:22.614Z,19.70
2022-08-09T01:30:59.067Z,19.60
2022-08-09T01:33:34.913Z,19.60
2022-08-09T01:36:06.477Z,19.60
2022-08-09T01:38:40.746Z,19.60
2022-08-09T01:41:16.805Z,19.60
2022-08-09T01:43:51.756Z,19.60
2022-08-09T01:46:26.448Z,19.60
2022-08-09T01:48:59.964Z,19.60
2022-08-09T01:51:44.349Z,19.60
2022-08-09T01:54:22.687Z,19.60
2022-08-09T01:56:56.797Z,19.60
2022-08-09T01:59:32.376Z,19.60
2022-08-09T02:02:04.015Z,19.60
2022-08-09T02:04:33.880Z,19.50
2022-08-09T02:07:18.186Z,19.50
2022-08-09T02:10:03.765Z,19.50
2022-08-09T02:12:35.639Z,19.50
2022-08-09T02:15:15.493Z,19.50
2022-08-09T02:18:01.120Z,19.40
2022-08-09T02:20:39.539Z,19.50
2022-08-09T02:23:11.256Z,19.50
2022-08-09T02:25:55.954Z,19.50
2022-08-09T02:28:31.839Z,19.50
2022-08-09T02:31:05.933Z,19.50
2022-08-09T02:34:06.995Z,19.50
2022-08-09T02:36:32.629Z,19.50
2022-08-09T02:39:06.850Z,19.50
2022-08-09T02:41:45.810Z,19.60
2022-08-09T02:44:29.458Z,19.60
2022-08-09T02:47:04.431Z,19.60
2022-08-09T02:49:38.980Z,19.60
2022-08-09T02:52:14.449Z,19.60
2022-08-09T02:54:54.439Z,19.60
2022-08-09T02:57:26.801Z,19.60
2022-08-09T03:00:21.023Z,19.60
2022-08-09T03:02:59.885Z,19.60
2022-08-09T03:05:34.394Z,19.60
2022-08-09T03:08:06.259Z,19.60
2022-08-09T03:10:37.401Z,19.60
2022-08-09T03:13:08.264Z,19.50
2022-08-09T03:15:40.379Z,19.60
2022-08-09T03:18:31.127Z,19.60
2022-08-09T03:21:02.009Z,19.50
2022-08-09T03:23:31.155Z,19.50
2022-08-09T03:26:03.504Z,19.50
2022-08-09T03:28:35.039Z,19.50
2022-08-09T03:31:21.424Z,19.50
2022-08-09T03:33:54.733Z,19.50
2022-08-09T03:36:27.030Z,19.50
2022-08-09T03:38:57.210Z,19.50
2022-08-09T03:41:29.858Z,19.50
2022-08-09T03:44:08.309Z,19.50
2022-08-09T03:46:37.918Z,19.40
2022-08-09T03:49:09.924Z,19.50
2022-08-09T03:51:56.869Z,19.40
2022-08-09T03:54:31.247Z,19.50
2022-08-09T03:57:04.247Z,19.40
2022-08-09T03:59:53.195Z,19.40
2022-08-09T04:02:26.597Z,19.40
2022-08-09T04:04:58.980Z,19.40
2022-08-09T04:07:47.560Z,19.40
2022-08-09T04:10:20.352Z,19.30
2022-08-09T04:12:51.335Z,19.30
2022-08-09T04:15:39.140Z,19.30
2022-08-09T04:18:17.957Z,19.30
2022-08-09T04:20:48.480Z,19.30
2022-08-09T04:23:17.828Z,19.30
2022-08-09T04:25:49.638Z,19.20
2022-08-09T04:28:30.702Z,19.20
2022-08-09T04:31:05.808Z,19.20
2022-08-09T04:33:47.377Z,19.10
2022-08-09T04:36:25.381Z,19.10
2022-08-09T04:38:54.183Z,19.10
2022-08-09T04:41:23.706Z,19.00
2022-08-09T04:44:07.197Z,19.00
2022-08-09T04:46:58.963Z,19.00
2022-08-09T04:49:52.254Z,18.90
2022-08-09T04:52:26.645Z,18.90
2022-08-09T04:54:56.604Z,18.80
2022-08-09T04:57:25.498Z,18.80
2022-08-09T04:59:55.606Z,18.70
2022-08-09T05:02:27.523Z,18.70
2022-08-09T05:04:56.613Z,18.70
2022-08-09T05:07:29.119Z,18.70
2022-08-09T05:10:01.646Z,18.70
2022-08-09T05:12:33.174Z,18.70
2022-08-09T05:15:11.169Z,18.70
2022-08-09T05:18:55.271Z,18.70
2022-08-09T05:20:30.508Z,18.70
2022-08-09T05:23:54.757Z,18.70
2022-08-09T05:25:50.990Z,18.70
2022-08-09T05:28:20.107Z,18.70
2022-08-09T05:30:51.595Z,18.80
2022-08-09T05:33:26.530Z,18.80
2022-08-09T05:36:04.137Z,18.90
2022-08-09T05:38:39.056Z,18.80
2022-08-09T05:41:08.398Z,18.90
2022-08-09T05:43:45.035Z,19.00
2022-08-09T05:46:17.196Z,19.00
2022-08-09T05:48:45.555Z,19.00
2022-08-09T05:51:43.154Z,18.90
2022-08-09T05:54:17.978Z,18.90
2022-08-09T05:56:54.426Z,18.90
2022-08-09T05:59:23.930Z,18.90
2022-08-09T06:01:58.944Z,19.00
2022-08-09T06:04:35.107Z,19.00
2022-08-09T06:07:03.787Z,19.00
2022-08-09T06:09:55.106Z,19.10
2022-08-09T06:12:22.139Z,19.20
2022-08-09T06:14:54.991Z,19.20
2022-08-09T06:17:39.928Z,19.20
2022-08-09T06:20:10.375Z,19.20
2022-08-09T06:22:39.511Z,19.20
2022-08-09T06:25:12.452Z,19.30
2022-08-09T06:27:51.823Z,19.30
2022-08-09T06:30:20.671Z,19.40
2022-08-09T06:33:00.212Z,19.40
2022-08-09T06:35:57.269Z,19.40
2022-08-09T06:38:36.321Z,19.40
2022-08-09T06:41:09.406Z,19.40
2022-08-09T06:43:47.884Z,19.40
2022-08-09T06:46:39.475Z,19.40
2022-08-09T06:49:05.281Z,19.40
2022-08-09T06:51:39.918Z,19.50
2022-08-09T06:54:09.149Z,19.50
2022-08-09T06:56:46.355Z,19.50
2022-08-09T07:00:53.930Z,19.60
2022-08-09T07:02:05.003Z,19.60
2022-08-09T07:04:33.673Z,19.70
2022-08-09T07:07:04.885Z,19.70
2022-08-09T07:09:55.468Z,19.70
2022-08-09T07:12:38.538Z,19.70
2022-08-09T07:16:38.627Z,19.80
2022-08-09T07:18:02.114Z,19.80
2022-08-09T07:20:31.119Z,19.90
2022-08-09T07:22:59.935Z,19.90
2022-08-09T07:25:28.634Z,19.90
2022-08-09T07:27:58.986Z,20.00
2022-08-09T07:30:33.127Z,20.00
2022-08-09T07:33:01.598Z,20.10
2022-08-09T07:35:54.150Z,20.20
2022-08-09T07:38:23.978Z,20.20
2022-08-09T07:41:12.107Z,20.20
2022-08-09T07:43:56.024Z,20.30
2022-08-09T07:46:27.949Z,20.30
2022-08-09T07:48:58.960Z,20.30
2022-08-09T07:52:04.715Z,20.40
2022-08-09T07:54:19.172Z,20.40
2022-08-09T07:56:56.696Z,20.40
2022-08-09T07:59:45.608Z,20.50
2022-08-09T08:02:19.925Z,20.50
2022-08-09T08:04:49.411Z,20.50
2022-08-09T08:08:43.056Z,20.50
2022-08-09T08:10:11.818Z,20.50
2022-08-09T08:12:44.087Z,20.50
2022-08-09T08:15:17.668Z,20.50
2022-08-09T08:17:53.884Z,20.60
2022-08-09T08:20:28.574Z,20.60
2022-08-09T08:23:01.697Z,20.60
2022-08-09T08:25:43.902Z,20.70
2022-08-09T08:28:15.162Z,20.70
2022-08-09T08:30:45.582Z,20.70
2022-08-09T08:33:21.828Z,20.80
2022-08-09T08:35:59.459Z,20.80
2022-08-09T08:38:29.912Z,20.80
2022-08-09T08:40:59.213Z,20.90
2022-08-09T08:43:28.145Z,20.90
2022-08-09T08:46:31.671Z,21.00
2022-08-09T08:48:54.220Z,21.00
2022-08-09T08:51:23.509Z,21.10
2022-08-09T08:54:03.095Z,21.10
2022-08-09T08:56:35.724Z,21.10
2022-08-09T08:59:07.817Z,21.20
2022-08-09T09:01:53.151Z,21.30
2022-08-09T09:04:31.225Z,21.30
2022-08-09T09:07:10.349Z,21.30
2022-08-09T09:10:02.831Z,21.40
2022-08-09T09:12:35.445Z,21.40
2022-08-09T09:15:06.730Z,21.40
2022-08-09T09:17:48.584Z,21.40
2022-08-09T09:20:21.312Z,21.50
2022-08-09T09:22:55.723Z,21.50
2022-08-09T09:26:02.451Z,21.50
2022-08-09T09:28:39.294Z,21.60
2022-08-09T09:31:17.172Z,21.70
2022-08-09T09:33:47.603Z,21.70
2022-08-09T09:36:25.446Z,21.70
2022-08-09T09:38:57.388Z,21.80
2022-08-09T09:41:49.233Z,21.80
2022-08-09T09:44:27.618Z,21.80
2022-08-09T09:47:06.895Z,21.90
2022-08-09T09:50:07.143Z,21.90
2022-08-09T09:52:36.968Z,21.90
2022-08-09T09:55:28.888Z,22.00
2022-08-09T09:58:16.188Z,22.00
2022-08-09T10:00:53.895Z,22.10
2022-08-09T10:03:40.367Z,22.10
2022-08-09T10:06:13.344Z,22.10
2022-08-09T10:08:54.426Z,22.20
2022-08-09T10:11:59.624Z,22.30
2022-08-09T10:14:30.811Z,22.40
2022-08-09T10:17:40.687Z,22.40
2022-08-09T10:19:59.824Z,22.40
2022-08-09T10:22:35.262Z,22.50
2022-08-09T10:25:12.507Z,22.50
2022-08-09T10:27:57.307Z,22.50
2022-08-09T10:33:29.704Z,22.60
2022-08-09T10:36:11.428Z,22.60
2022-08-09T10:38:56.824Z,22.60
2022-08-09T10:41:28.393Z,22.70
2022-08-09T10:43:59.743Z,22.70
2022-08-09T10:47:03.969Z,22.70
2022-08-09T10:49:51.456Z,22.70
2022-08-09T10:52:42.851Z,22.70
2022-08-09T10:55:26.053Z,22.70
2022-08-09T10:58:00.214Z,22.70
2022-08-09T11:00:41.785Z,22.70
2022-08-09T11:03:50.642Z,22.70
2022-08-09T11:06:25.491Z,22.70
2022-08-09T11:08:54.950Z,22.70
2022-08-09T11:12:07.615Z,22.80
2022-08-09T11:14:41.881Z,22.80
2022-08-09T11:17:53.284Z,22.80
2022-08-09T11:20:49.626Z,22.80
2022-08-09T11:23:23.946Z,22.70
2022-08-09T11:25:58.199Z,22.70
2022-08-09T11:28:56.087Z,22.60
2022-08-09T11:31:49.881Z,22.60
2022-08-09T11:34:44.312Z,22.60
2022-08-09T11:37:24.923Z,22.60
2022-08-09T11:40:03.977Z,22.60
2022-08-09T11:42:43.660Z,22.60
2022-08-09T11:45:37.700Z,22.70
2022-08-09T11:48:26.104Z,22.70
2022-08-09T11:52:48.813Z,22.80
2022-08-09T11:54:21.522Z,22.80
2022-08-09T11:57:56.399Z,22.90
2022-08-09T12:00:27.350Z,22.90
2022-08-09T12:02:56.643Z,22.90
2022-08-09T12:05:39.550Z,23.00
2022-08-09T12:08:12.511Z,23.00
2022-08-09T12:10:52.969Z,23.10
2022-08-09T12:14:09.546Z,23.10
2022-08-09T12:16:37.614Z,23.20
2022-08-09T12:19:09.201Z,23.20
2022-08-09T12:21:50.263Z,23.30
2022-08-09T12:24:24.375Z,23.40
2022-08-09T12:28:58.494Z,23.40
2022-08-09T12:30:00.081Z,23.50
2022-08-09T12:32:32.915Z,23.60
2022-08-09T12:35:04.757Z,23.60
2022-08-09T12:37:50.214Z,23.70
2022-08-09T12:40:21.272Z,23.70
2022-08-09T12:42:51.896Z,23.80
2022-08-09T12:45:35.044Z,23.80
2022-08-09T12:48:20.441Z,23.90
2022-08-09T12:50:57.944Z,24.00
2022-08-09T12:53:37.723Z,24.00
2022-08-09T12:56:12.894Z,24.00
2022-08-09T12:59:12.055Z,24.10
2022-08-09T13:01:48.958Z,24.10
2022-08-09T13:04:33.170Z,24.10
2022-08-09T13:07:13.850Z,24.20
2022-08-09T13:09:52.666Z,24.20
2022-08-09T13:12:23.641Z,24.30
2022-08-09T13:14:54.943Z,24.40
2022-08-09T13:18:03.620Z,24.40
2022-08-09T13:20:23.468Z,24.40
2022-08-09T13:23:01.748Z,24.50
2022-08-09T13:25:54.988Z,24.50
2022-08-09T13:28:34.280Z,24.50
2022-08-09T13:32:13.913Z,24.60
2022-08-09T13:33:56.865Z,24.70
2022-08-09T13:36:40.754Z,24.70
2022-08-09T13:41:45.982Z,24.70
2022-08-09T13:42:11.925Z,24.80
2022-08-09T13:44:42.722Z,24.90
2022-08-09T13:47:33.070Z,24.90
2022-08-09T13:50:01.980Z,25.00
2022-08-09T13:52:31.951Z,25.00
2022-08-09T13:55:05.117Z,25.00
2022-08-09T13:57:40.632Z,25.00
2022-08-09T14:00:13.995Z,25.10
2022-08-09T14:03:03.910Z,25.10
2022-08-09T14:06:00.088Z,25.20
2022-08-09T14:08:26.945Z,25.20
2022-08-09T14:10:57.264Z,25.30
2022-08-09T14:14:15.896Z,25.30
2022-08-09T14:16:18.019Z,25.30
2022-08-09T14:18:51.674Z,25.30
2022-08-09T14:21:22.527Z,25.40
2022-08-09T14:23:54.933Z,25.40
2022-08-09T14:26:32.111Z,25.40
2022-08-09T14:29:07.376Z,25.50
2022-08-09T14:31:50.005Z,25.50
2022-08-09T14:34:31.537Z,25.50
2022-08-09T14:37:02.216Z,25.50
2022-08-09T14:39:40.384Z,25.60
2022-08-09T14:42:28.848Z,25.70
2022-08-09T14:46:38.935Z,25.70
2022-08-09T14:47:58.102Z,25.70
2022-08-09T14:50:28.218Z,25.70
2022-08-09T14:52:56.604Z,25.70
2022-08-09T14:55:29.117Z,25.70
2022-08-09T14:58:05.027Z,25.70
2022-08-09T15:00:37.037Z,25.80
2022-08-09T15:03:10.555Z,25.80
2022-08-09T15:05:49.606Z,25.80
2022-08-09T15:08:21.171Z,25.80
2022-08-09T15:11:01.752Z,25.80
2022-08-09T15:13:56.370Z,25.80
2022-08-09T15:16:23.377Z,25.90
2022-08-09T15:18:59.515Z,25.80
2022-08-09T15:21:55.045Z,25.80
2022-08-09T15:24:23.368Z,25.90
2022-08-09T15:26:55.669Z,25.90
2022-08-09T15:30:57.290Z,25.90
2022-08-09T15:32:29.838Z,25.90
2022-08-09T15:35:18.595Z,25.90
2022-08-09T15:37:57.272Z,26.00
2022-08-09T15:40:43.535Z,26.00
2022-08-09T15:43:13.715Z,26.00
2022-08-09T15:45:51.833Z,25.90
2022-08-09T15:48:32.612Z,25.90
2022-08-09T15:51:01.133Z,25.90
2022-08-09T15:54:03.862Z,25.90
2022-08-09T15:56:21.600Z,25.80
2022-08-09T15:58:57.240Z,25.80
2022-08-09T16:01:25.702Z,25.80
2022-08-09T16:03:55.516Z,25.70
2022-08-09T16:06:34.918Z,25.70
2022-08-09T16:09:06.517Z,25.70
2022-08-09T16:11:35.162Z,25.60
2022-08-09T16:14:08.496Z,25.60
2022-08-09T16:16:42.014Z,25.60
2022-08-09T16:19:18.113Z,25.50
2022-08-09T16:21:53.723Z,25.50
2022-08-09T16:24:33.694Z,25.50
2022-08-09T16:27:05.755Z,25.50
2022-08-09T16:29:37.074Z,25.40
2022-08-09T16:32:18.418Z,25.40
2022-08-09T16:35:00.271Z,25.40
2022-08-09T16:37:55.956Z,25.30
2022-08-09T16:40:39.704Z,25.30
2022-08-09T16:43:08.698Z,25.30
2022-08-09T16:45:44.316Z,25.30
2022-08-09T16:48:50.657Z,25.30
2022-08-09T16:51:07.940Z,25.40
2022-08-09T16:53:37.437Z,25.40
2022-08-09T16:56:10.272Z,25.50
2022-08-09T16:58:42.770Z,25.50
2022-08-09T17:01:23.780Z,25.60
2022-08-09T17:03:53.503Z,25.70
2022-08-09T17:06:31.580Z,25.70
2022-08-09T17:09:13.599Z,25.80
2022-08-09T17:11:52.551Z,25.80
2022-08-09T17:14:27.626Z,25.90
2022-08-09T17:17:00.179Z,25.90
2022-08-09T17:19:47.628Z,25.90
2022-08-09T17:22:23.827Z,25.90
2022-08-09T17:24:55.503Z,25.90
2022-08-09T17:27:25.154Z,25.90
2022-08-09T17:29:53.688Z,25.90
2022-08-09T17:32:35.109Z,25.90
2022-08-09T17:35:12.411Z,25.90
2022-08-09T17:38:02.417Z,26.00
2022-08-09T17:40:33.273Z,26.00
2022-08-09T17:43:10.754Z,26.00
2022-08-09T17:46:05.858Z,26.00
2022-08-09T17:48:38.276Z,26.00
2022-08-09T17:51:17.456Z,26.00
2022-08-09T17:53:55.054Z,26.00
2022-08-09T17:56:28.044Z,26.10
2022-08-09T17:58:59.683Z,26.10
2022-08-09T18:02:03.538Z,26.20
2022-08-09T18:04:17.992Z,26.20
2022-08-09T18:06:54.561Z,26.20
2022-08-09T18:09:40.446Z,26.20
2022-08-09T18:12:18.276Z,26.20
2022-08-09T18:14:53.898Z,26.20
2022-08-09T18:18:01.576Z,26.20
2022-08-09T18:20:54.436Z,26.20
2022-08-09T18:23:05.686Z,26.20
2022-08-09T18:25:50.470Z,26.30
2022-08-09T18:30:42.196Z,26.30
2022-08-09T18:31:11.123Z,26.30
2022-08-09T18:33:40.241Z,26.30
2022-08-09T18:36:14.282Z,26.20
2022-08-09T18:39:00.292Z,26.20
2022-08-09T18:41:34.687Z,26.20
2022-08-09T18:44:10.621Z,26.20
2022-08-09T18:46:50.073Z,26.20
2022-08-09T18:49:32.136Z,26.20
2022-08-09T18:52:10.031Z,26.20
2022-08-09T18:54:38.602Z,26.10
2022-08-09T18:57:08.281Z,26.20
2022-08-09T18:59:48.912Z,26.10
2022-08-09T19:02:19.200Z,26.10
2022-08-09T19:05:14.153Z,26.10
2022-08-09T19:07:36.555Z,26.00
2022-08-09T19:10:15.134Z,25.90
2022-08-09T19:12:50.879Z,25.80
2022-08-09T19:15:36.590Z,25.70
2022-08-09T19:18:06.093Z,25.60
2022-08-09T19:20:45.747Z,25.40
2022-08-09T19:24:35.982Z,25.30
2022-08-09T19:26:14.986Z,25.20
2022-08-09T19:28:48.754Z,25.10
2022-08-09T19:31:17.571Z,25.00
2022-08-09T19:33:46.107Z,24.90
2022-08-09T19:36:14.413Z,24.80
2022-08-09T19:38:43.095Z,24.70
2022-08-09T19:41:33.339Z,24.60
2022-08-09T19:44:05.834Z,24.50
2022-08-09T19:46:35.734Z,24.40
2022-08-09T19:50:08.502Z,24.40
2022-08-09T19:52:07.508Z,24.30
2022-08-09T19:54:36.063Z,24.20
2022-08-09T19:57:04.629Z,24.10
2022-08-09T19:59:58.965Z,24.00
2022-08-09T20:04:26.089Z,24.00
2022-08-09T20:05:16.661Z,23.90
2022-08-09T20:07:58.696Z,23.80
2022-08-09T20:10:36.417Z,23.80
2022-08-09T20:13:06.907Z,23.70
2022-08-09T20:16:39.343Z,23.70
2022-08-09T20:18:28.151Z,23.60
2022-08-09T20:20:57.024Z,23.60
2022-08-09T20:23:39.020Z,23.60
2022-08-09T20:26:10.113Z,23.50
2022-08-09T20:28:47.936Z,23.40
2022-08-09T20:31:20.014Z,23.40
2022-08-09T20:33:58.154Z,23.40
2022-08-09T20:36:27.320Z,23.30
2022-08-09T20:39:28.106Z,23.30
2022-08-09T20:41:44.947Z,23.30
2022-08-09T20:44:17.328Z,23.20
2022-08-09T20:46:57.860Z,23.20
2022-08-09T20:49:28.578Z,23.10
2022-08-09T20:51:57.956Z,23.10
2022-08-09T20:54:29.110Z,23.10
2022-08-09T20:56:58.597Z,23.00
2022-08-09T21:00:20.726Z,23.00
2022-08-09T21:02:19.015Z,23.00
2022-08-09T21:05:55.290Z,22.90
2022-08-09T21:07:40.456Z,22.90
2022-08-09T21:10:13.155Z,22.90
2022-08-09T21:15:34.226Z,22.80
2022-08-09T21:18:23.697Z,22.80
2022-08-09T21:20:54.587Z,22.80
2022-08-09T21:23:35.974Z,22.80
2022-08-09T21:26:12.785Z,22.80
2022-08-09T21:28:56.072Z,22.70
2022-08-09T21:31:48.061Z,22.70
2022-08-09T21:34:21.049Z,22.70
2022-08-09T21:36:58.253Z,22.60
2022-08-09T21:39:28.239Z,22.60
2022-08-09T21:42:10.903Z,22.60
2022-08-09T21:44:39.593Z,22.60
2022-08-09T21:47:14.130Z,22.50
2022-08-09T21:49:48.286Z,22.50
2022-08-09T21:52:20.596Z,22.50
2022-08-09T21:54:59.264Z,22.50
2022-08-09T21:57:39.489Z,22.50
2022-08-09T22:00:31.784Z,22.50
2022-08-09T22:03:02.007Z,22.50
2022-08-09T22:05:35.935Z,22.50
2022-08-09T22:08:13.115Z,22.40
2022-08-09T22:11:49.173Z,22.40
2022-08-09T22:13:34.725Z,22.40
2022-08-09T22:16:07.313Z,22.40
2022-08-09T22:18:37.168Z,22.40
2022-08-09T22:21:09.688Z,22.30
2022-08-09T22:23:59.423Z,22.30
2022-08-09T22:26:34.743Z,22.30
2022-08-09T22:29:09.419Z,22.30
2022-08-09T22:31:44.646Z,22.20
2022-08-09T22:34:25.894Z,22.20
2022-08-09T22:36:56.297Z,22.20
2022-08-09T22:39:56.091Z,22.20
2022-08-09T22:42:20.815Z,22.20
2022-08-09T22:45:00.047Z,22.20
2022-08-09T22:48:16.722Z,22.10
2022-08-09T22:50:27.678Z,22.10
2022-08-09T22:52:58.301Z,22.10
2022-08-09T22:55:32.166Z,22.10
2022-08-09T22:58:08.505Z,22.10
2022-08-09T23:00:37.582Z,22.00
2022-08-09T23:03:12.820Z,22.00
2022-08-09T23:05:45.778Z,22.00
2022-08-09T23:08:33.499Z,22.00
2022-08-09T23:11:02.591Z,22.00
2022-08-09T23:13:31.054Z,22.00
2022-08-09T23:16:03.183Z,21.90
2022-08-09T23:18:32.071Z,21.90
2022-08-09T23:21:00.557Z,21.90
2022-08-09T23:23:30.379Z,21.80
2022-08-09T23:25:59.029Z,21.90
2022-08-09T23:28:27.468Z,21.80
2022-08-09T23:30:56.068Z,21.70
2022-08-09T23:33:25.392Z,21.70
2022-08-09T23:36:06.279Z,21.70
2022-08-09T23:38:48.890Z,21.70
2022-08-09T23:41:27.465Z,21.60
2022-08-09T23:43:58.297Z,21.60
2022-08-09T23:46:26.709Z,21.60
2022-08-09T23:48:55.069Z,21.50
2022-08-09T23:51:23.607Z,21.50
2022-08-09T23:53:55.123Z,21.40
2022-08-09T23:56:52.631Z,21.40
2022-08-09T23:59:12.868Z,21.40
